sensor_id;sensor_type;location;lat;lon;timestamp;pressure;altitude;pressure_sealevel;temperature;humidity
67109;BME280;54027;50.786;7.058;2022-10-26T00:00:25;100975.59;;;19.58;60.61
67109;BME280;54027;50.786;7.058;2022-10-26T00:02:53;100976.50;;;19.57;60.68
67109;BME280;54027;50.786;7.058;2022-10-26T00:05:19;100973.03;;;19.56;60.66
67109;BME280;54027;50.786;7.058;2022-10-26T00:07:44;100967.75;;;19.56;60.54
67109;BME280;54027;50.786;7.058;2022-10-26T00:10:10;100958.13;;;19.55;60.64
67109;BME280;54027;50.786;7.058;2022-10-26T00:12:35;100959.94;;;19.55;60.64
67109;BME280;54027;50.786;7.058;2022-10-26T00:15:00;100959.00;;;19.56;60.73
67109;BME280;54027;50.786;7.058;2022-10-26T00:17:26;100954.69;;;19.55;60.56
67109;BME280;54027;50.786;7.058;2022-10-26T00:19:51;100953.81;;;19.54;60.57
67109;BME280;54027;50.786;7.058;2022-10-26T00:22:16;100955.59;;;19.54;60.71
67109;BME280;54027;50.786;7.058;2022-10-26T00:24:42;100960.00;;;19.53;60.75
67109;BME280;54027;50.786;7.058;2022-10-26T00:27:07;100960.88;;;19.54;60.67
67109;BME280;54027;50.786;7.058;2022-10-26T00:29:32;100963.41;;;19.55;60.59
67109;BME280;54027;50.786;7.058;2022-10-26T00:31:58;100967.00;;;19.54;60.54
67109;BME280;54027;50.786;7.058;2022-10-26T00:34:23;100957.38;;;19.53;60.61
67109;BME280;54027;50.786;7.058;2022-10-26T00:36:48;100969.63;;;19.54;60.76
67109;BME280;54027;50.786;7.058;2022-10-26T00:39:14;100974.97;;;19.53;60.57
67109;BME280;54027;50.786;7.058;2022-10-26T00:41:39;100968.84;;;19.52;60.62
67109;BME280;54027;50.786;7.058;2022-10-26T00:45:13;100970.56;;;19.53;60.57
67109;BME280;54027;50.786;7.058;2022-10-26T00:47:27;100965.38;;;19.52;60.66
67109;BME280;54027;50.786;7.058;2022-10-26T00:49:55;100968.84;;;19.52;60.55
67109;BME280;54027;50.786;7.058;2022-10-26T00:52:23;100960.94;;;19.52;60.62
67109;BME280;54027;50.786;7.058;2022-10-26T00:54:50;100969.69;;;19.53;60.60
67109;BME280;54027;50.786;7.058;2022-10-26T00:57:17;100957.56;;;19.50;60.56
67109;BME280;54027;50.786;7.058;2022-10-26T00:59:44;100964.44;;;19.53;60.56
67109;BME280;54027;50.786;7.058;2022-10-26T01:02:11;100964.53;;;19.51;60.45
67109;BME280;54027;50.786;7.058;2022-10-26T01:04:36;100970.66;;;19.52;60.72
67109;BME280;54027;50.786;7.058;2022-10-26T01:07:03;100965.38;;;19.52;60.56
67109;BME280;54027;50.786;7.058;2022-10-26T01:09:30;100958.41;;;19.51;60.50
67109;BME280;54027;50.786;7.058;2022-10-26T01:11:56;100952.28;;;19.50;60.52
67109;BME280;54027;50.786;7.058;2022-10-26T01:14:21;100947.88;;;19.51;60.46
67109;BME280;54027;50.786;7.058;2022-10-26T01:17:00;100945.22;;;19.51;60.56
67109;BME280;54027;50.786;7.058;2022-10-26T01:20:38;100937.31;;;19.51;60.50
67109;BME280;54027;50.786;7.058;2022-10-26T01:22:37;100938.25;;;19.50;60.58
67109;BME280;54027;50.786;7.058;2022-10-26T01:31:09;100929.50;;;19.49;60.57
67109;BME280;54027;50.786;7.058;2022-10-26T01:33:44;100930.34;;;19.50;60.43
67109;BME280;54027;50.786;7.058;2022-10-26T01:36:21;100931.19;;;19.50;60.57
67109;BME280;54027;50.786;7.058;2022-10-26T01:38:58;100926.84;;;19.49;60.47
67109;BME280;54027;50.786;7.058;2022-10-26T01:41:33;100915.50;;;19.49;60.38
67109;BME280;54027;50.786;7.058;2022-10-26T01:44:03;100916.31;;;19.49;60.45
67109;BME280;54027;50.786;7.058;2022-10-26T01:46:35;100910.22;;;19.49;60.55
67109;BME280;54027;50.786;7.058;2022-10-26T01:49:07;100905.03;;;19.47;60.38
67109;BME280;54027;50.786;7.058;2022-10-26T01:51:34;100896.09;;;19.50;60.44
67109;BME280;54027;50.786;7.058;2022-10-26T01:54:00;100902.31;;;19.49;60.43
67109;BME280;54027;50.786;7.058;2022-10-26T01:56:28;100904.16;;;19.47;60.42
67109;BME280;54027;50.786;7.058;2022-10-26T02:15:37;100900.59;;;19.48;60.44
67109;BME280;54027;50.786;7.058;2022-10-26T02:18:41;100892.78;;;19.46;60.43
67109;BME280;54027;50.786;7.058;2022-10-26T02:21:16;100892.78;;;19.46;60.57
67109;BME280;54027;50.786;7.058;2022-10-26T02:23:45;100888.47;;;19.45;60.09
67109;BME280;54027;50.786;7.058;2022-10-26T02:26:15;100890.13;;;19.46;60.36
67109;BME280;54027;50.786;7.058;2022-10-26T02:28:49;100882.22;;;19.46;60.56
67109;BME280;54027;50.786;7.058;2022-10-26T02:31:15;100876.97;;;19.46;60.43
67109;BME280;54027;50.786;7.058;2022-10-26T02:33:45;100884.03;;;19.46;60.34
67109;BME280;54027;50.786;7.058;2022-10-26T02:36:17;100888.47;;;19.45;60.01
67109;BME280;54027;50.786;7.058;2022-10-26T02:38:46;100886.69;;;19.46;60.46
67109;BME280;54027;50.786;7.058;2022-10-26T02:41:13;100882.34;;;19.45;60.30
67109;BME280;54027;50.786;7.058;2022-10-26T02:43:45;100875.34;;;19.44;60.29
67109;BME280;54027;50.786;7.058;2022-10-26T02:46:15;100877.06;;;19.45;60.40
67109;BME280;54027;50.786;7.058;2022-10-26T02:48:42;100877.06;;;19.45;60.48
67109;BME280;54027;50.786;7.058;2022-10-26T02:51:15;100871.78;;;19.45;60.38
67109;BME280;54027;50.786;7.058;2022-10-26T02:53:50;100874.44;;;19.45;60.35
67109;BME280;54027;50.786;7.058;2022-10-26T02:56:25;100867.44;;;19.44;60.35
67109;BME280;54027;50.786;7.058;2022-10-26T02:58:58;100862.19;;;19.44;60.14
67109;BME280;54027;50.786;7.058;2022-10-26T03:01:27;100862.19;;;19.44;60.20
67109;BME280;54027;50.786;7.058;2022-10-26T03:03:56;100860.41;;;19.44;60.30
67109;BME280;54027;50.786;7.058;2022-10-26T03:06:22;100857.78;;;19.44;60.29
67109;BME280;54027;50.786;7.058;2022-10-26T03:08:48;100859.53;;;19.44;60.37
67109;BME280;54027;50.786;7.058;2022-10-26T03:11:13;100862.19;;;19.44;60.28
67109;BME280;54027;50.786;7.058;2022-10-26T03:13:38;100860.41;;;19.44;60.33
67109;BME280;54027;50.786;7.058;2022-10-26T03:16:04;100867.44;;;19.44;60.30
67109;BME280;54027;50.786;7.058;2022-10-26T03:18:29;100857.88;;;19.43;60.41
67109;BME280;54027;50.786;7.058;2022-10-26T03:20:55;100860.50;;;19.43;60.08
67109;BME280;54027;50.786;7.058;2022-10-26T03:23:20;100862.28;;;19.42;60.32
67109;BME280;54027;50.786;7.058;2022-10-26T03:25:45;100869.22;;;19.43;60.35
67109;BME280;54027;50.786;7.058;2022-10-26T03:28:11;100867.56;;;19.42;60.23
67109;BME280;54027;50.786;7.058;2022-10-26T03:30:36;100866.59;;;19.43;60.43
67109;BME280;54027;50.786;7.058;2022-10-26T03:33:01;100861.44;;;19.42;60.19
67109;BME280;54027;50.786;7.058;2022-10-26T03:35:27;100862.28;;;19.42;60.22
67109;BME280;54027;50.786;7.058;2022-10-26T03:37:52;100864.06;;;19.42;60.28
67109;BME280;54027;50.786;7.058;2022-10-26T03:40:19;100868.47;;;19.41;60.10
67109;BME280;54027;50.786;7.058;2022-10-26T03:42:44;100865.78;;;19.43;60.31
67109;BME280;54027;50.786;7.058;2022-10-26T03:45:10;100873.69;;;19.43;60.64
67109;BME280;54027;50.786;7.058;2022-10-26T03:47:45;100866.78;;;19.40;60.32
67109;BME280;54027;50.786;7.058;2022-10-26T03:50:12;100874.59;;;19.42;60.30
67109;BME280;54027;50.786;7.058;2022-10-26T03:52:39;100868.47;;;19.41;60.28
67109;BME280;54027;50.786;7.058;2022-10-26T03:55:05;100867.63;;;19.41;60.33
67109;BME280;54027;50.786;7.058;2022-10-26T03:57:30;100861.50;;;19.40;60.35
67109;BME280;54027;50.786;7.058;2022-10-26T03:59:56;100865.94;;;19.40;60.23
67109;BME280;54027;50.786;7.058;2022-10-26T04:02:21;100870.25;;;19.41;60.32
67109;BME280;54027;50.786;7.058;2022-10-26T04:04:46;100870.25;;;19.41;60.28
67109;BME280;54027;50.786;7.058;2022-10-26T04:07:12;100871.22;;;19.40;60.31
67109;BME280;54027;50.786;7.058;2022-10-26T04:09:37;100874.66;;;19.40;60.18
67109;BME280;54027;50.786;7.058;2022-10-26T04:12:02;100872.03;;;19.40;60.18
67109;BME280;54027;50.786;7.058;2022-10-26T04:14:28;100868.56;;;19.40;60.31
67109;BME280;54027;50.786;7.058;2022-10-26T04:16:53;100875.53;;;19.41;60.11
67109;BME280;54027;50.786;7.058;2022-10-26T04:19:19;100879.13;;;19.40;60.24
67109;BME280;54027;50.786;7.058;2022-10-26T04:21:44;100875.63;;;19.39;60.21
67109;BME280;54027;50.786;7.058;2022-10-26T04:24:09;100874.78;;;19.39;60.32
67109;BME280;54027;50.786;7.058;2022-10-26T04:26:35;100880.78;;;19.41;60.23
67109;BME280;54027;50.786;7.058;2022-10-26T04:29:01;100879.13;;;19.40;60.23
67109;BME280;54027;50.786;7.058;2022-10-26T04:31:31;100873.84;;;19.40;60.19
67109;BME280;54027;50.786;7.058;2022-10-26T04:33:56;100875.63;;;19.39;60.33
67109;BME280;54027;50.786;7.058;2022-10-26T04:36:22;100874.59;;;19.42;60.19
67109;BME280;54027;50.786;7.058;2022-10-26T04:38:47;100876.78;;;19.49;59.98
67109;BME280;54027;50.786;7.058;2022-10-26T04:41:13;100873.97;;;19.52;60.42
67109;BME280;54027;50.786;7.058;2022-10-26T04:43:38;100876.22;;;19.60;59.88
67109;BME280;54027;50.786;7.058;2022-10-26T04:46:04;100877.81;;;19.62;59.93
67109;BME280;54027;50.786;7.058;2022-10-26T04:48:29;100882.75;;;19.68;59.72
67109;BME280;54027;50.786;7.058;2022-10-26T04:50:58;100880.78;;;19.72;59.67
67109;BME280;54027;50.786;7.058;2022-10-26T04:53:23;100877.78;;;19.78;59.46
67109;BME280;54027;50.786;7.058;2022-10-26T04:55:49;100866.28;;;19.79;59.72
67109;BME280;54027;50.786;7.058;2022-10-26T04:58:19;100859.91;;;19.83;59.50
67109;BME280;54027;50.786;7.058;2022-10-26T05:00:45;100856.06;;;19.89;59.23
67109;BME280;54027;50.786;7.058;2022-10-26T05:03:10;100856.75;;;19.92;59.43
67109;BME280;54027;50.786;7.058;2022-10-26T05:05:36;100856.75;;;19.92;59.16
67109;BME280;54027;50.786;7.058;2022-10-26T05:08:02;100847.06;;;19.93;59.20
67109;BME280;54027;50.786;7.058;2022-10-26T05:10:28;100854.13;;;19.92;59.23
67109;BME280;54027;50.786;7.058;2022-10-26T05:12:54;100851.31;;;19.95;59.27
67109;BME280;54027;50.786;7.058;2022-10-26T05:15:21;100848.00;;;19.92;59.28
67109;BME280;54027;50.786;7.058;2022-10-26T05:17:49;100848.84;;;19.92;59.16
67109;BME280;54027;50.786;7.058;2022-10-26T05:20:18;100854.88;;;19.94;59.19
67109;BME280;54027;50.786;7.058;2022-10-26T05:22:51;100860.06;;;19.96;59.20
67109;BME280;54027;50.786;7.058;2022-10-26T05:25:16;100854.66;;;19.83;59.48
67109;BME280;54027;50.786;7.058;2022-10-26T05:27:42;100866.13;;;19.82;59.22
67109;BME280;54027;50.786;7.058;2022-10-26T05:30:07;100860.03;;;19.82;59.28
67109;BME280;54027;50.786;7.058;2022-10-26T05:32:33;100863.13;;;19.88;59.17
67109;BME280;54027;50.786;7.058;2022-10-26T05:34:58;100850.63;;;19.92;58.89
67109;BME280;54027;50.786;7.058;2022-10-26T05:37:27;100856.47;;;19.97;58.78
67109;BME280;54027;50.786;7.058;2022-10-26T05:39:52;100850.19;;;19.99;58.31
67109;BME280;54027;50.786;7.058;2022-10-26T05:42:18;100859.78;;;20.00;58.64
67109;BME280;54027;50.786;7.058;2022-10-26T05:44:44;100865.91;;;20.01;58.74
67109;BME280;54027;50.786;7.058;2022-10-26T05:47:10;100881.72;;;20.01;58.71
67109;BME280;54027;50.786;7.058;2022-10-26T05:49:35;100874.84;;;19.98;58.72
67109;BME280;54027;50.786;7.058;2022-10-26T05:52:00;100877.56;;;19.97;58.46
67109;BME280;54027;50.786;7.058;2022-10-26T05:54:26;100880.31;;;19.95;58.76
67109;BME280;54027;50.786;7.058;2022-10-26T05:56:51;100882.25;;;19.92;58.85
67109;BME280;54027;50.786;7.058;2022-10-26T05:59:17;100894.69;;;19.90;58.56
67109;BME280;54027;50.786;7.058;2022-10-26T06:01:51;100899.13;;;19.89;58.85
67109;BME280;54027;50.786;7.058;2022-10-26T06:04:25;100898.25;;;19.89;58.76
67109;BME280;54027;50.786;7.058;2022-10-26T06:06:53;100900.47;;;19.96;58.81
67109;BME280;54027;50.786;7.058;2022-10-26T06:09:20;100900.28;;;19.99;58.75
67109;BME280;54027;50.786;7.058;2022-10-26T06:11:46;100892.53;;;20.12;58.98
67109;BME280;54027;50.786;7.058;2022-10-26T06:14:11;100885.56;;;20.11;58.44
67109;BME280;54027;50.786;7.058;2022-10-26T06:16:47;100889.25;;;20.08;58.71
67109;BME280;54027;50.786;7.058;2022-10-26T06:19:35;100881.84;;;19.99;58.61
67109;BME280;54027;50.786;7.058;2022-10-26T06:24:43;100907.03;;;19.89;59.14
67109;BME280;54027;50.786;7.058;2022-10-26T06:30:07;100914.00;;;19.90;59.64
67109;BME280;54027;50.786;7.058;2022-10-26T06:32:42;100911.94;;;19.95;59.53
67109;BME280;54027;50.786;7.058;2022-10-26T06:35:30;100914.06;;;19.89;59.43
67109;BME280;54027;50.786;7.058;2022-10-26T06:38:02;100912.63;;;19.99;59.18
67109;BME280;54027;50.786;7.058;2022-10-26T06:40:31;100922.50;;;19.95;59.99
67109;BME280;54027;50.786;7.058;2022-10-26T06:43:01;100922.16;;;19.86;59.67
67109;BME280;54027;50.786;7.058;2022-10-26T06:45:27;100928.47;;;19.83;59.60
67109;BME280;54027;50.786;7.058;2022-10-26T06:48:01;100935.84;;;19.92;59.97
67109;BME280;54027;50.786;7.058;2022-10-26T06:50:39;100936.31;;;19.85;59.27
67109;BME280;54027;50.786;7.058;2022-10-26T06:55:40;100932.72;;;19.86;59.32
67109;BME280;54027;50.786;7.058;2022-10-26T06:58:28;100934.75;;;19.80;59.43
67109;BME280;54027;50.786;7.058;2022-10-26T07:00:55;100932.53;;;19.89;61.01
67109;BME280;54027;50.786;7.058;2022-10-26T07:03:21;100927.09;;;19.92;60.80
67109;BME280;54027;50.786;7.058;2022-10-26T07:05:46;100924.56;;;19.90;59.40
67109;BME280;54027;50.786;7.058;2022-10-26T07:08:12;100932.88;;;19.83;60.26
67109;BME280;54027;50.786;7.058;2022-10-26T07:10:38;100937.41;;;19.80;59.71
67109;BME280;54027;50.786;7.058;2022-10-26T07:13:04;100943.78;;;19.76;60.09
67109;BME280;54027;50.786;7.058;2022-10-26T07:15:30;100934.09;;;19.77;60.15
67109;BME280;54027;50.786;7.058;2022-10-26T07:17:56;100943.41;;;19.98;59.29
67109;BME280;54027;50.786;7.058;2022-10-26T07:20:21;100943.94;;;19.89;59.21
67109;BME280;54027;50.786;7.058;2022-10-26T07:22:51;100957.13;;;19.89;59.21
67109;BME280;54027;50.786;7.058;2022-10-26T07:25:17;100944.22;;;19.69;59.64
67109;BME280;54027;50.786;7.058;2022-10-26T07:27:42;100943.63;;;19.64;60.06
67109;BME280;54027;50.786;7.058;2022-10-26T07:30:08;100934.84;;;19.79;59.66
67109;BME280;54027;50.786;7.058;2022-10-26T07:32:34;100948.50;;;20.01;60.09
67109;BME280;54027;50.786;7.058;2022-10-26T07:34:59;100962.38;;;20.05;60.51
67109;BME280;54027;50.786;7.058;2022-10-26T07:37:24;100978.09;;;20.06;61.00
67109;BME280;54027;50.786;7.058;2022-10-26T07:39:52;100971.50;;;19.99;59.28
67109;BME280;54027;50.786;7.058;2022-10-26T07:42:18;100964.91;;;20.06;59.21
67109;BME280;54027;50.786;7.058;2022-10-26T07:44:43;100970.34;;;20.34;60.00
67109;BME280;54027;50.786;7.058;2022-10-26T07:47:09;100968.19;;;19.80;59.49
67109;BME280;54027;50.786;7.058;2022-10-26T07:49:34;100968.63;;;19.72;59.83
67109;BME280;54027;50.786;7.058;2022-10-26T07:51:59;100959.75;;;19.73;59.72
67109;BME280;54027;50.786;7.058;2022-10-26T07:54:25;100960.09;;;19.67;59.83
67109;BME280;54027;50.786;7.058;2022-10-26T07:56:50;100952.97;;;19.69;61.20
67109;BME280;54027;50.786;7.058;2022-10-26T07:59:16;100965.97;;;19.72;59.78
67109;BME280;54027;50.786;7.058;2022-10-26T08:01:42;100969.72;;;19.68;59.69
67109;BME280;54027;50.786;7.058;2022-10-26T08:04:08;100976.00;;;19.66;60.03
67109;BME280;54027;50.786;7.058;2022-10-26T08:06:33;100979.75;;;19.62;60.22
67109;BME280;54027;50.786;7.058;2022-10-26T08:08:58;100979.66;;;19.63;60.12
67109;BME280;54027;50.786;7.058;2022-10-26T08:11:24;100959.50;;;19.62;60.23
67109;BME280;54027;50.786;7.058;2022-10-26T08:13:53;100963.06;;;19.61;60.14
67109;BME280;54027;50.786;7.058;2022-10-26T08:16:19;100962.91;;;19.64;60.16
67109;BME280;54027;50.786;7.058;2022-10-26T08:18:51;100968.34;;;19.61;60.24
67109;BME280;54027;50.786;7.058;2022-10-26T08:21:17;100966.66;;;19.60;60.24
67109;BME280;54027;50.786;7.058;2022-10-26T08:23:42;100969.28;;;19.60;60.04
67109;BME280;54027;50.786;7.058;2022-10-26T08:26:09;100970.91;;;19.63;60.20
67109;BME280;54027;50.786;7.058;2022-10-26T08:28:38;100976.34;;;19.60;60.27
67109;BME280;54027;50.786;7.058;2022-10-26T08:31:05;100987.75;;;19.60;60.28
67109;BME280;54027;50.786;7.058;2022-10-26T08:33:30;100985.09;;;19.60;60.33
67109;BME280;54027;50.786;7.058;2022-10-26T08:35:58;100991.31;;;19.59;60.35
67109;BME280;54027;50.786;7.058;2022-10-26T08:38:24;100996.41;;;19.62;60.57
67109;BME280;54027;50.786;7.058;2022-10-26T08:40:50;100990.38;;;19.60;60.13
67109;BME280;54027;50.786;7.058;2022-10-26T08:43:18;100994.69;;;19.61;60.23
67109;BME280;54027;50.786;7.058;2022-10-26T08:48:33;100993.00;;;19.60;60.40
67109;BME280;54027;50.786;7.058;2022-10-26T08:51:10;101002.59;;;19.61;60.15
67109;BME280;54027;50.786;7.058;2022-10-26T08:53:48;101006.09;;;19.62;60.26
67109;BME280;54027;50.786;7.058;2022-10-26T08:56:19;101008.72;;;19.62;60.42
67109;BME280;54027;50.786;7.058;2022-10-26T08:59:06;101005.22;;;19.61;60.28
67109;BME280;54027;50.786;7.058;2022-10-26T09:01:33;101016.63;;;19.62;60.43
67109;BME280;54027;50.786;7.058;2022-10-26T09:04:02;101008.72;;;19.62;59.83
67109;BME280;54027;50.786;7.058;2022-10-26T09:12:23;100997.16;;;19.64;59.95
67109;BME280;54027;50.786;7.058;2022-10-26T09:25:40;101021.84;;;19.63;60.47
67109;BME280;54027;50.786;7.058;2022-10-26T09:28:14;101019.84;;;19.67;60.10
67109;BME280;54027;50.786;7.058;2022-10-26T09:30:43;101022.59;;;19.65;60.15
67109;BME280;54027;50.786;7.058;2022-10-26T09:33:21;101024.53;;;19.62;60.36
67109;BME280;54027;50.786;7.058;2022-10-26T09:35:56;101028.72;;;19.66;60.30
67109;BME280;54027;50.786;7.058;2022-10-26T09:38:31;101029.75;;;19.63;60.25
67109;BME280;54027;50.786;7.058;2022-10-26T09:46:21;101040.94;;;19.67;60.24
67109;BME280;54027;50.786;7.058;2022-10-26T09:49:09;101035.59;;;19.68;60.17
67109;BME280;54027;50.786;7.058;2022-10-26T09:51:37;101041.91;;;19.66;60.19
67109;BME280;54027;50.786;7.058;2022-10-26T09:54:12;101038.31;;;19.67;60.23
67109;BME280;54027;50.786;7.058;2022-10-26T09:56:39;101053.19;;;19.68;60.24
67109;BME280;54027;50.786;7.058;2022-10-26T09:59:06;101055.84;;;19.68;60.17
67109;BME280;54027;50.786;7.058;2022-10-26T10:01:33;101052.88;;;19.90;60.07
67109;BME280;54027;50.786;7.058;2022-10-26T10:09:27;101056.09;;;19.79;59.85
67109;BME280;54027;50.786;7.058;2022-10-26T10:11:54;101070.47;;;19.73;60.02
67109;BME280;54027;50.786;7.058;2022-10-26T10:14:40;101065.28;;;19.72;59.96
67109;BME280;54027;50.786;7.058;2022-10-26T10:17:20;101073.97;;;19.74;60.12
67109;BME280;54027;50.786;7.058;2022-10-26T10:19:46;101083.94;;;19.85;60.57
67109;BME280;54027;50.786;7.058;2022-10-26T10:24:59;101076.44;;;19.93;60.13
67109;BME280;54027;50.786;7.058;2022-10-26T10:27:26;101086.72;;;19.97;59.50
67109;BME280;54027;50.786;7.058;2022-10-26T10:29:56;101093.00;;;19.79;59.92
67109;BME280;54027;50.786;7.058;2022-10-26T10:32:27;101092.06;;;19.80;59.95
67109;BME280;54027;50.786;7.058;2022-10-26T10:34:55;101094.81;;;19.78;60.10
67109;BME280;54027;50.786;7.058;2022-10-26T10:37:37;101097.63;;;19.75;60.10
67109;BME280;54027;50.786;7.058;2022-10-26T10:40:12;101101.16;;;19.74;60.33
67109;BME280;54027;50.786;7.058;2022-10-26T10:42:40;101102.88;;;19.75;60.15
67109;BME280;54027;50.786;7.058;2022-10-26T10:45:25;101102.19;;;19.72;60.32
67109;BME280;54027;50.786;7.058;2022-10-26T10:50:31;101121.50;;;19.72;60.44
67109;BME280;54027;50.786;7.058;2022-10-26T10:53:24;101114.34;;;19.74;60.25
67109;BME280;54027;50.786;7.058;2022-10-26T10:58:54;101120.16;;;19.81;60.40
67109;BME280;54027;50.786;7.058;2022-10-26T11:01:37;101125.09;;;19.87;60.59
67109;BME280;54027;50.786;7.058;2022-10-26T11:04:21;101124.94;;;20.06;60.88
67109;BME280;54027;50.786;7.058;2022-10-26T11:06:50;101128.75;;;19.85;61.34
67109;BME280;54027;50.786;7.058;2022-10-26T11:09:20;101130.75;;;19.79;61.19
67109;BME280;54027;50.786;7.058;2022-10-26T11:11:53;101133.66;;;19.75;61.06
67109;BME280;54027;50.786;7.058;2022-10-26T11:17:01;101134.25;;;19.80;60.89
67109;BME280;54027;50.786;7.058;2022-10-26T11:22:12;101143.25;;;19.76;60.47
67109;BME280;54027;50.786;7.058;2022-10-26T11:24:44;101145.88;;;19.76;60.63
67109;BME280;54027;50.786;7.058;2022-10-26T11:27:48;101139.94;;;19.72;60.76
67109;BME280;54027;50.786;7.058;2022-10-26T11:30:20;101149.47;;;19.75;60.59
67109;BME280;54027;50.786;7.058;2022-10-26T11:35:31;101149.38;;;19.76;60.38
67109;BME280;54027;50.786;7.058;2022-10-26T11:38:31;101152.13;;;19.75;60.47
67109;BME280;54027;50.786;7.058;2022-10-26T11:41:09;101152.97;;;19.75;60.42
67109;BME280;54027;50.786;7.058;2022-10-26T11:43:41;101146.47;;;19.98;60.54
67109;BME280;54027;50.786;7.058;2022-10-26T11:46:19;101145.00;;;19.93;60.43
67109;BME280;54027;50.786;7.058;2022-10-26T11:51:39;101147.53;;;19.94;60.41
67109;BME280;54027;50.786;7.058;2022-10-26T11:54:17;101147.72;;;19.91;60.41
67109;BME280;54027;50.786;7.058;2022-10-26T11:56:49;101150.03;;;19.97;60.30
67109;BME280;54027;50.786;7.058;2022-10-26T11:59:19;101150.38;;;20.07;61.39
67109;BME280;54027;50.786;7.058;2022-10-26T12:01:51;101148.25;;;19.98;60.19
67109;BME280;54027;50.786;7.058;2022-10-26T12:04:21;101148.34;;;19.96;60.77
67109;BME280;54027;50.786;7.058;2022-10-26T12:06:48;101153.28;;;20.02;60.57
67109;BME280;54027;50.786;7.058;2022-10-26T12:09:19;101156.84;;;20.01;60.40
67109;BME280;54027;50.786;7.058;2022-10-26T12:14:33;101154.09;;;20.03;60.39
67109;BME280;54027;50.786;7.058;2022-10-26T12:17:13;101156.09;;;19.99;60.74
67109;BME280;54027;50.786;7.058;2022-10-26T12:22:36;101164.97;;;19.97;60.83
67109;BME280;54027;50.786;7.058;2022-10-26T12:37:54;101185.59;;;20.06;61.11
67109;BME280;54027;50.786;7.058;2022-10-26T12:46:35;101186.72;;;20.02;60.93
67109;BME280;54027;50.786;7.058;2022-10-26T12:48:57;101183.59;;;19.94;60.24
67109;BME280;54027;50.786;7.058;2022-10-26T12:56:56;101195.09;;;20.10;60.57
67109;BME280;54027;50.786;7.058;2022-10-26T12:59:39;101196.06;;;20.07;60.67
67109;BME280;54027;50.786;7.058;2022-10-26T13:07:34;101194.38;;;20.06;60.34
67109;BME280;54027;50.786;7.058;2022-10-26T13:10:17;101192.97;;;20.16;61.63
67109;BME280;54027;50.786;7.058;2022-10-26T13:12:55;101199.34;;;20.12;60.62
67109;BME280;54027;50.786;7.058;2022-10-26T13:15:39;101200.59;;;20.05;60.35
67109;BME280;54027;50.786;7.058;2022-10-26T13:18:13;101199.50;;;20.09;60.16
67109;BME280;54027;50.786;7.058;2022-10-26T13:20:57;101197.00;;;20.06;59.99
67109;BME280;54027;50.786;7.058;2022-10-26T13:23:27;101199.97;;;20.00;60.40
67109;BME280;54027;50.786;7.058;2022-10-26T13:26:08;101203.22;;;20.05;60.31
67109;BME280;54027;50.786;7.058;2022-10-26T13:31:01;101211.84;;;20.09;62.32
67109;BME280;54027;50.786;7.058;2022-10-26T13:33:39;101209.66;;;20.00;60.48
67109;BME280;54027;50.786;7.058;2022-10-26T13:36:16;101220.59;;;20.09;60.40
67109;BME280;54027;50.786;7.058;2022-10-26T13:38:44;101213.94;;;20.02;60.37
67109;BME280;54027;50.786;7.058;2022-10-26T13:41:18;101231.75;;;19.97;60.41
67109;BME280;54027;50.786;7.058;2022-10-26T13:43:45;101230.69;;;20.01;60.52
67109;BME280;54027;50.786;7.058;2022-10-26T13:46:38;101228.75;;;20.05;60.17
67109;BME280;54027;50.786;7.058;2022-10-26T13:49:19;101225.31;;;20.03;60.24
67109;BME280;54027;50.786;7.058;2022-10-26T13:51:48;101232.25;;;20.05;60.35
67109;BME280;54027;50.786;7.058;2022-10-26T13:54:25;101228.63;;;20.08;60.38
67109;BME280;54027;50.786;7.058;2022-10-26T13:57:04;101232.09;;;20.08;60.41
67109;BME280;54027;50.786;7.058;2022-10-26T13:59:38;101233.38;;;20.00;60.19
67109;BME280;54027;50.786;7.058;2022-10-26T14:02:12;101228.28;;;19.97;60.27
67109;BME280;54027;50.786;7.058;2022-10-26T14:04:39;101240.47;;;19.99;60.47
67109;BME280;54027;50.786;7.058;2022-10-26T14:07:04;101248.22;;;20.02;60.94
67109;BME280;54027;50.786;7.058;2022-10-26T14:09:30;101235.03;;;20.02;60.29
67109;BME280;54027;50.786;7.058;2022-10-26T14:11:58;101249.91;;;20.03;60.75
67109;BME280;54027;50.786;7.058;2022-10-26T14:14:33;101251.69;;;20.03;60.02
67109;BME280;54027;50.786;7.058;2022-10-26T14:17:00;101245.81;;;19.98;60.48
67109;BME280;54027;50.786;7.058;2022-10-26T14:19:27;101251.09;;;19.98;60.40
67109;BME280;54027;50.786;7.058;2022-10-26T14:21:54;101257.53;;;20.09;60.44
67109;BME280;54027;50.786;7.058;2022-10-26T14:24:22;101265.56;;;20.06;60.21
67109;BME280;54027;50.786;7.058;2022-10-26T14:26:47;101263.88;;;20.05;60.49
67109;BME280;54027;50.786;7.058;2022-10-26T14:29:18;101264.34;;;20.13;60.14
67109;BME280;54027;50.786;7.058;2022-10-26T14:31:44;101261.16;;;20.07;60.53
67109;BME280;54027;50.786;7.058;2022-10-26T14:34:11;101264.09;;;20.01;60.29
67109;BME280;54027;50.786;7.058;2022-10-26T14:36:41;101272.72;;;20.04;60.42
67109;BME280;54027;50.786;7.058;2022-10-26T14:39:17;101265.03;;;20.00;60.95
67109;BME280;54027;50.786;7.058;2022-10-26T14:41:44;101270.56;;;20.12;60.77
67109;BME280;54027;50.786;7.058;2022-10-26T14:44:17;101270.84;;;20.06;60.35
67109;BME280;54027;50.786;7.058;2022-10-26T14:46:43;101270.09;;;20.04;61.11
67109;BME280;54027;50.786;7.058;2022-10-26T14:49:18;101263.94;;;20.04;60.22
67109;BME280;54027;50.786;7.058;2022-10-26T14:51:44;101269.94;;;20.07;61.23
67109;BME280;54027;50.786;7.058;2022-10-26T14:54:19;101275.44;;;20.20;60.60
67109;BME280;54027;50.786;7.058;2022-10-26T14:56:45;101270.69;;;20.26;62.41
67109;BME280;54027;50.786;7.058;2022-10-26T15:04:38;101281.19;;;20.11;61.52
67109;BME280;54027;50.786;7.058;2022-10-26T15:09:47;101281.03;;;20.62;61.59